createdAt,value
2017-11-30T00:00:08.621Z,5.90
2017-11-30T00:02:36.993Z,5.90
2017-11-30T00:05:04.581Z,5.90
2017-11-30T00:07:32.222Z,5.90
2017-11-30T00:10:00.700Z,5.80
2017-11-30T00:12:28.362Z,5.80
2017-11-30T00:14:56.031Z,5.80
2017-11-30T00:17:24.511Z,5.70
2017-11-30T00:19:52.890Z,5.70
2017-11-30T00:22:20.545Z,5.70
2017-11-30T00:24:48.143Z,5.70
2017-11-30T00:27:15.869Z,5.70
2017-11-30T00:29:43.457Z,5.70
2017-11-30T00:32:11.833Z,5.70
2017-11-30T00:34:40.202Z,5.60
2017-11-30T00:37:08.583Z,5.60
2017-11-30T00:39:37.057Z,5.50
2017-11-30T00:42:04.672Z,5.50
2017-11-30T00:44:33.814Z,5.50
2017-11-30T00:47:02.201Z,5.40
2017-11-30T00:49:30.566Z,5.30
2017-11-30T00:51:58.191Z,5.30
2017-11-30T00:54:25.782Z,5.30
2017-11-30T00:56:53.437Z,5.30
2017-11-30T00:59:21.062Z,5.30
2017-11-30T01:01:48.666Z,5.20
2017-11-30T01:04:16.291Z,5.20
2017-11-30T01:06:43.909Z,5.20
2017-11-30T01:09:11.521Z,5.10
2017-11-30T01:11:39.127Z,5.10
2017-11-30T01:14:06.790Z,5.10
2017-11-30T01:16:34.449Z,5.10
2017-11-30T01:19:02.139Z,5.00
2017-11-30T01:21:30.511Z,5.00
2017-11-30T01:23:58.974Z,5.00
2017-11-30T01:26:26.637Z,4.90
2017-11-30T01:28:54.302Z,4.90
2017-11-30T01:31:21.899Z,4.90
2017-11-30T01:33:49.491Z,4.90
2017-11-30T01:36:17.186Z,4.80
2017-11-30T01:38:44.854Z,4.80
2017-11-30T01:41:13.977Z,4.80
2017-11-30T01:43:41.610Z,4.70
2017-11-30T01:46:09.274Z,4.70
2017-11-30T01:48:36.934Z,4.70
2017-11-30T01:51:04.603Z,4.70
2017-11-30T01:53:32.199Z,4.70
2017-11-30T01:55:59.921Z,4.70
2017-11-30T01:58:27.521Z,4.70
2017-11-30T02:00:55.245Z,4.60
2017-11-30T02:03:22.840Z,4.60
2017-11-30T02:05:50.474Z,4.60
2017-11-30T02:08:18.849Z,4.50
2017-11-30T02:10:46.442Z,4.50
2017-11-30T02:13:14.064Z,4.50
2017-11-30T02:15:41.675Z,4.50
2017-11-30T02:18:09.293Z,4.40
2017-11-30T02:20:36.881Z,4.40
2017-11-30T02:23:05.337Z,4.40
2017-11-30T02:25:33.005Z,4.40
2017-11-30T02:28:00.729Z,4.30
2017-11-30T02:30:28.430Z,4.30
2017-11-30T02:32:56.041Z,4.30
2017-11-30T02:35:23.645Z,4.30
2017-11-30T02:37:51.263Z,4.30
2017-11-30T02:40:18.884Z,4.30
2017-11-30T02:42:47.298Z,4.30
2017-11-30T02:45:14.898Z,4.30
2017-11-30T02:47:42.494Z,4.30
2017-11-30T02:50:10.246Z,4.30
2017-11-30T02:52:37.846Z,4.30
2017-11-30T02:55:05.578Z,4.30
2017-11-30T02:57:33.229Z,4.30
2017-11-30T03:00:00.852Z,4.30
2017-11-30T03:02:28.454Z,4.30
2017-11-30T03:04:56.078Z,4.30
2017-11-30T03:07:23.686Z,4.20
2017-11-30T03:09:51.449Z,4.20
2017-11-30T03:12:19.105Z,4.20
2017-11-30T03:14:46.780Z,4.20
2017-11-30T03:17:15.248Z,4.10
2017-11-30T03:19:42.915Z,4.10
2017-11-30T03:22:10.582Z,4.10
2017-11-30T03:24:39.058Z,4.00
2017-11-30T03:27:06.721Z,4.00
2017-11-30T03:29:34.339Z,4.00
2017-11-30T03:32:02.045Z,4.00
2017-11-30T03:34:30.429Z,3.90
2017-11-30T03:36:58.091Z,3.90
2017-11-30T03:39:26.462Z,3.80
2017-11-30T03:41:54.865Z,3.80
2017-11-30T03:44:22.481Z,3.80
2017-11-30T03:46:50.131Z,3.80
2017-11-30T03:49:17.754Z,3.80
2017-11-30T03:51:45.394Z,3.80
2017-11-30T03:54:13.778Z,3.70
2017-11-30T03:56:42.191Z,3.70
2017-11-30T03:59:09.815Z,3.70
2017-11-30T04:01:37.490Z,3.70
2017-11-30T04:04:05.146Z,3.70
2017-11-30T04:06:32.871Z,3.60
2017-11-30T04:09:00.578Z,3.60
2017-11-30T04:11:28.243Z,3.60
2017-11-30T04:13:55.901Z,3.60
2017-11-30T04:16:23.518Z,3.60
2017-11-30T04:18:51.227Z,3.60
2017-11-30T04:21:18.890Z,3.60
2017-11-30T04:23:46.529Z,3.60
2017-11-30T04:26:14.917Z,3.60
2017-11-30T04:28:43.327Z,3.60
2017-11-30T04:31:10.950Z,3.60
2017-11-30T04:33:38.594Z,3.60
2017-11-30T04:36:06.209Z,3.60
2017-11-30T04:38:34.588Z,3.60
2017-11-30T04:41:02.211Z,3.50
2017-11-30T04:43:29.833Z,3.50
2017-11-30T04:45:57.567Z,3.50
2017-11-30T04:48:25.230Z,3.50
2017-11-30T04:50:52.869Z,3.50
2017-11-30T04:53:20.554Z,3.50
2017-11-30T04:55:48.174Z,3.50
2017-11-30T04:58:15.887Z,3.50
2017-11-30T05:00:43.530Z,3.50
2017-11-30T05:03:11.130Z,3.50
2017-11-30T05:05:38.765Z,3.50
2017-11-30T05:08:06.353Z,3.50
2017-11-30T05:10:33.982Z,3.60
2017-11-30T05:13:01.636Z,3.60
2017-11-30T05:15:29.249Z,3.60
2017-11-30T05:17:56.837Z,3.70
2017-11-30T05:20:24.528Z,3.70
2017-11-30T05:22:52.952Z,3.80
2017-11-30T05:25:20.546Z,3.80
2017-11-30T05:27:48.173Z,3.80
2017-11-30T05:30:15.771Z,3.80
2017-11-30T05:32:43.388Z,3.80
2017-11-30T05:35:11.733Z,3.90
2017-11-30T05:37:39.457Z,3.90
2017-11-30T05:40:07.070Z,3.90
2017-11-30T05:42:34.689Z,4.00
2017-11-30T05:45:02.401Z,4.00
2017-11-30T05:47:30.879Z,4.10
2017-11-30T05:49:58.474Z,4.00
2017-11-30T05:52:26.090Z,4.10
2017-11-30T05:54:53.695Z,4.10
2017-11-30T05:57:21.290Z,4.10
2017-11-30T05:59:48.910Z,4.20
2017-11-30T06:02:16.506Z,4.20
2017-11-30T06:04:44.122Z,4.20
2017-11-30T06:07:12.481Z,4.30
2017-11-30T06:09:41.683Z,4.30
2017-11-30T06:12:09.279Z,4.30
2017-11-30T06:14:36.889Z,4.30
2017-11-30T06:17:04.473Z,4.40
2017-11-30T06:19:32.950Z,4.40
2017-11-30T06:22:00.547Z,4.40
2017-11-30T06:24:28.152Z,4.50
2017-11-30T06:26:55.747Z,4.50
2017-11-30T06:29:24.214Z,4.60
2017-11-30T06:31:51.873Z,4.50
2017-11-30T06:34:19.485Z,4.60
2017-11-30T06:36:47.099Z,4.60
2017-11-30T06:39:15.474Z,4.70
2017-11-30T06:41:43.082Z,4.60
2017-11-30T06:44:10.682Z,4.70
2017-11-30T06:46:38.302Z,4.70
2017-11-30T06:49:05.898Z,4.70
2017-11-30T06:51:33.513Z,4.70
2017-11-30T06:54:01.882Z,4.70
2017-11-30T06:56:30.257Z,4.70
2017-11-30T06:58:58.618Z,4.70
2017-11-30T07:01:26.237Z,4.70
2017-11-30T07:03:53.830Z,4.70
2017-11-30T07:06:21.510Z,4.60
2017-11-30T07:08:49.100Z,4.70
2017-11-30T07:11:16.743Z,4.70
2017-11-30T07:13:45.108Z,4.70
2017-11-30T07:16:12.774Z,4.70
2017-11-30T07:18:40.447Z,4.70
2017-11-30T07:21:08.924Z,4.80
2017-11-30T07:23:37.314Z,4.80
2017-11-30T07:26:05.668Z,4.80
2017-11-30T07:28:33.293Z,4.80
2017-11-30T07:31:00.901Z,4.80
2017-11-30T07:33:28.528Z,4.90
2017-11-30T07:35:56.221Z,4.90
2017-11-30T07:38:23.895Z,4.90
2017-11-30T07:40:51.486Z,4.90
2017-11-30T07:43:19.213Z,4.90
2017-11-30T07:45:47.566Z,4.90
2017-11-30T07:48:15.209Z,4.90
2017-11-30T07:50:42.796Z,4.90
2017-11-30T07:53:10.386Z,5.00
2017-11-30T07:55:38.929Z,5.00
2017-11-30T07:58:06.630Z,5.00
2017-11-30T08:00:34.249Z,5.00
2017-11-30T08:03:01.837Z,5.10
2017-11-30T08:05:29.458Z,5.10
2017-11-30T08:07:57.055Z,5.10
2017-11-30T08:10:24.679Z,5.10
2017-11-30T08:12:52.282Z,5.20
2017-11-30T08:15:19.901Z,5.20
2017-11-30T08:17:47.500Z,5.20
2017-11-30T08:20:15.122Z,5.30
2017-11-30T08:22:42.719Z,5.30
2017-11-30T08:25:10.364Z,5.30
2017-11-30T08:27:37.956Z,5.40
2017-11-30T08:30:05.631Z,5.40
2017-11-30T08:32:34.009Z,5.40
2017-11-30T08:35:01.602Z,5.40
2017-11-30T08:37:29.332Z,5.50
2017-11-30T08:39:56.930Z,5.50
2017-11-30T08:42:24.541Z,5.50
2017-11-30T08:44:52.143Z,5.50
2017-11-30T08:47:19.756Z,5.50
2017-11-30T08:49:47.358Z,5.50
2017-11-30T08:52:15.799Z,5.40
2017-11-30T08:54:43.486Z,5.40
2017-11-30T08:57:11.146Z,5.40
2017-11-30T08:59:38.814Z,5.50
2017-11-30T09:02:07.290Z,5.50
2017-11-30T09:04:34.889Z,5.50
2017-11-30T09:07:02.530Z,5.50
2017-11-30T09:09:30.992Z,5.60
2017-11-30T09:11:58.662Z,5.60
2017-11-30T09:14:26.385Z,5.70
2017-11-30T09:16:53.973Z,5.70
2017-11-30T09:19:21.585Z,5.70
2017-11-30T09:21:49.184Z,5.70
2017-11-30T09:24:16.880Z,5.70
2017-11-30T09:26:45.246Z,5.80
2017-11-30T09:29:13.523Z,5.70
2017-11-30T09:31:41.900Z,5.80
2017-11-30T09:34:09.520Z,5.80
2017-11-30T09:36:37.109Z,5.80
2017-11-30T09:39:04.726Z,5.80
2017-11-30T09:41:32.318Z,5.80
2017-11-30T09:43:59.930Z,5.80
2017-11-30T09:46:28.295Z,5.80
2017-11-30T09:48:55.918Z,5.80
2017-11-30T09:51:23.514Z,5.80
2017-11-30T09:53:51.125Z,5.70
2017-11-30T09:56:18.717Z,5.70
2017-11-30T09:58:46.308Z,5.60
2017-11-30T10:01:14.689Z,5.60
2017-11-30T10:03:43.050Z,5.60
2017-11-30T10:06:10.679Z,5.60
2017-11-30T10:08:38.345Z,5.60
2017-11-30T10:11:05.957Z,5.70
2017-11-30T10:13:34.324Z,5.70
2017-11-30T10:16:02.811Z,5.60
2017-11-30T10:18:30.407Z,5.60
2017-11-30T10:20:58.018Z,5.60
2017-11-30T10:23:25.604Z,5.60
2017-11-30T10:25:54.069Z,5.60
2017-11-30T10:28:21.738Z,5.60
2017-11-30T10:30:50.997Z,5.60
2017-11-30T10:33:18.591Z,5.60
2017-11-30T10:35:46.198Z,5.60
2017-11-30T10:38:13.926Z,5.60
2017-11-30T10:40:41.522Z,5.70
2017-11-30T10:43:09.132Z,5.70
2017-11-30T10:45:36.740Z,5.70
2017-11-30T10:48:04.371Z,5.70
2017-11-30T10:50:31.970Z,5.70
2017-11-30T10:52:59.581Z,5.70
2017-11-30T10:55:27.259Z,5.60
2017-11-30T10:57:54.922Z,5.60
2017-11-30T11:00:22.579Z,5.60
2017-11-30T11:02:50.242Z,5.50
2017-11-30T11:05:17.846Z,5.60
2017-11-30T11:07:45.470Z,5.60
2017-11-30T11:10:13.069Z,5.60
2017-11-30T11:12:40.790Z,5.60
2017-11-30T11:15:08.445Z,5.60
2017-11-30T11:17:36.037Z,5.60
2017-11-30T11:20:04.498Z,5.60
2017-11-30T11:22:32.163Z,5.60
2017-11-30T11:24:59.773Z,5.60
2017-11-30T11:27:27.386Z,5.60
2017-11-30T11:29:55.042Z,5.60
2017-11-30T11:32:22.638Z,5.50
2017-11-30T11:34:50.259Z,5.50
2017-11-30T11:37:17.937Z,5.50
2017-11-30T11:39:46.330Z,5.60
2017-11-30T11:42:14.698Z,5.60
2017-11-30T11:44:43.133Z,5.60
2017-11-30T11:47:10.725Z,5.60
2017-11-30T11:49:38.399Z,5.70
2017-11-30T11:52:06.773Z,5.80
2017-11-30T11:54:34.371Z,5.70
2017-11-30T11:57:01.989Z,5.80
2017-11-30T11:59:29.576Z,5.90
2017-11-30T12:01:57.963Z,5.90
2017-11-30T12:04:26.323Z,5.90
2017-11-30T12:06:53.973Z,5.90
2017-11-30T12:09:21.645Z,6.00
2017-11-30T12:11:49.302Z,6.00
2017-11-30T12:14:16.969Z,6.00
2017-11-30T12:16:44.591Z,6.00
2017-11-30T12:19:12.298Z,6.00
2017-11-30T12:21:39.917Z,6.00
2017-11-30T12:24:07.514Z,6.00
2017-11-30T12:26:35.243Z,6.00
2017-11-30T12:29:02.829Z,6.00
2017-11-30T12:31:30.424Z,5.90
2017-11-30T12:33:58.890Z,6.00
2017-11-30T12:36:26.558Z,6.00
2017-11-30T12:38:55.039Z,5.90
2017-11-30T12:41:23.405Z,5.90
2017-11-30T12:43:51.074Z,5.90
2017-11-30T12:46:18.665Z,6.00
2017-11-30T12:48:46.303Z,6.00
2017-11-30T12:51:14.671Z,6.00
2017-11-30T12:53:42.342Z,6.00
2017-11-30T12:56:09.934Z,6.00
2017-11-30T12:58:37.563Z,6.00
2017-11-30T13:01:05.234Z,6.00
2017-11-30T13:03:33.636Z,5.90
2017-11-30T13:06:01.228Z,5.90
2017-11-30T13:08:28.811Z,6.00
2017-11-30T13:10:56.424Z,6.00
2017-11-30T13:13:24.012Z,5.90
2017-11-30T13:15:51.624Z,6.00
2017-11-30T13:18:19.979Z,6.00
2017-11-30T13:20:47.592Z,6.00
2017-11-30T13:23:15.192Z,6.00
2017-11-30T13:25:42.812Z,6.00
2017-11-30T13:28:10.399Z,6.10
2017-11-30T13:30:38.012Z,6.10
2017-11-30T13:33:06.472Z,6.10
2017-11-30T13:35:34.084Z,6.10
2017-11-30T13:38:01.705Z,6.10
2017-11-30T13:40:29.341Z,6.10
2017-11-30T13:42:56.928Z,6.10
2017-11-30T13:45:24.593Z,6.20
2017-11-30T13:47:53.072Z,6.30
2017-11-30T13:50:20.738Z,6.20
2017-11-30T13:52:48.348Z,6.30
2017-11-30T13:55:15.952Z,6.30
2017-11-30T13:57:43.580Z,6.20
2017-11-30T14:00:11.205Z,6.20
2017-11-30T14:02:39.656Z,6.30
2017-11-30T14:05:07.243Z,6.20
2017-11-30T14:07:35.704Z,6.20
2017-11-30T14:10:03.325Z,6.20
2017-11-30T14:12:30.941Z,6.20
2017-11-30T14:14:59.296Z,6.10
2017-11-30T14:17:26.933Z,6.10
2017-11-30T14:19:54.633Z,6.00
2017-11-30T14:22:22.297Z,6.00
2017-11-30T14:24:49.914Z,6.00
2017-11-30T14:27:17.617Z,6.00
2017-11-30T14:29:45.237Z,6.00
2017-11-30T14:32:12.844Z,6.00
2017-11-30T14:34:40.463Z,6.00
2017-11-30T14:37:08.163Z,6.00
2017-11-30T14:39:35.773Z,6.00
2017-11-30T14:42:03.392Z,6.00
2017-11-30T14:44:32.583Z,5.90
2017-11-30T14:47:00.180Z,5.90
2017-11-30T14:49:27.801Z,5.90
2017-11-30T14:51:55.481Z,6.00
2017-11-30T14:54:23.144Z,6.00
2017-11-30T14:56:50.800Z,6.00
2017-11-30T14:59:18.391Z,6.00
2017-11-30T15:01:46.773Z,5.90
2017-11-30T15:04:14.404Z,5.90
2017-11-30T15:06:42.019Z,5.90
2017-11-30T15:09:09.652Z,5.90
2017-11-30T15:11:38.104Z,5.80
2017-11-30T15:14:05.690Z,5.80
2017-11-30T15:16:34.068Z,5.70
2017-11-30T15:19:02.423Z,5.70
2017-11-30T15:21:30.096Z,5.70
2017-11-30T15:23:57.683Z,5.70
2017-11-30T15:26:25.709Z,5.70
2017-11-30T15:28:53.320Z,5.70
2017-11-30T15:31:20.943Z,5.80
2017-11-30T15:33:50.016Z,5.80
2017-11-30T15:36:17.703Z,5.80
2017-11-30T15:38:45.373Z,5.70
2017-11-30T15:41:13.036Z,5.80
2017-11-30T15:43:40.758Z,5.70
2017-11-30T15:46:08.353Z,5.70
2017-11-30T15:48:35.964Z,5.70
2017-11-30T15:51:03.562Z,5.70
2017-11-30T15:53:31.537Z,5.70
2017-11-30T15:55:59.213Z,5.70
2017-11-30T15:58:26.836Z,5.80
2017-11-30T16:00:54.425Z,5.80
2017-11-30T16:03:22.032Z,5.80
2017-11-30T16:05:49.629Z,5.80
2017-11-30T16:08:17.339Z,5.90
2017-11-30T16:10:45.692Z,5.80
2017-11-30T16:13:13.323Z,5.80
2017-11-30T16:15:40.927Z,5.80
2017-11-30T16:18:08.516Z,5.80
2017-11-30T16:20:36.973Z,5.70
2017-11-30T16:23:04.564Z,5.70
2017-11-30T16:25:32.168Z,5.70
2017-11-30T16:27:59.852Z,5.70
2017-11-30T16:30:27.521Z,5.70
2017-11-30T16:32:55.167Z,5.70
2017-11-30T16:35:22.784Z,5.70
2017-11-30T16:37:50.377Z,5.80
2017-11-30T16:40:17.992Z,5.80
2017-11-30T16:42:46.345Z,5.90
2017-11-30T16:45:13.959Z,5.80
2017-11-30T16:47:41.548Z,5.80
2017-11-30T16:50:09.186Z,5.80
2017-11-30T16:52:36.777Z,5.80
2017-11-30T16:55:04.364Z,5.80
2017-11-30T16:57:32.731Z,5.70
2017-11-30T17:00:00.383Z,5.70
2017-11-30T17:02:27.993Z,5.80
2017-11-30T17:04:55.612Z,5.80
2017-11-30T17:07:23.341Z,5.80
2017-11-30T17:09:50.933Z,5.80
2017-11-30T17:12:18.549Z,5.70
2017-11-30T17:14:46.141Z,5.70
2017-11-30T17:17:13.991Z,5.70
2017-11-30T17:19:41.592Z,5.70
2017-11-30T17:22:09.208Z,5.70
2017-11-30T17:24:36.812Z,5.70
2017-11-30T17:27:04.480Z,5.70
2017-11-30T17:29:32.066Z,5.70
2017-11-30T17:32:00.516Z,5.70
2017-11-30T17:34:28.176Z,5.70
2017-11-30T17:36:55.849Z,5.70
2017-11-30T17:39:24.324Z,5.70
2017-11-30T17:41:51.912Z,5.70
2017-11-30T17:44:20.292Z,5.80
2017-11-30T17:46:48.653Z,5.80
2017-11-30T17:49:16.427Z,5.80
2017-11-30T17:51:44.943Z,5.70
2017-11-30T17:54:13.344Z,5.70
2017-11-30T17:56:40.932Z,5.70
2017-11-30T17:59:08.591Z,5.80
2017-11-30T18:01:37.686Z,5.80
2017-11-30T18:04:05.321Z,5.80
2017-11-30T18:06:33.016Z,5.80
2017-11-30T18:09:00.604Z,5.80
2017-11-30T18:11:28.980Z,5.80
2017-11-30T18:13:57.439Z,5.80
2017-11-30T18:16:25.048Z,5.70
2017-11-30T18:18:52.664Z,5.70
2017-11-30T18:21:20.320Z,5.70
2017-11-30T18:23:47.988Z,5.70
2017-11-30T18:26:15.658Z,5.70
2017-11-30T18:28:44.006Z,5.70
2017-11-30T18:31:11.622Z,5.70
2017-11-30T18:33:39.980Z,5.70
2017-11-30T18:36:07.584Z,5.70
2017-11-30T18:38:35.168Z,5.70
2017-11-30T18:41:02.789Z,5.70
2017-11-30T18:43:30.425Z,5.70
2017-11-30T18:45:58.029Z,5.60
2017-11-30T18:48:25.624Z,5.60
2017-11-30T18:50:53.295Z,5.60
2017-11-30T18:53:20.968Z,5.60
2017-11-30T18:55:48.628Z,5.60
2017-11-30T18:58:16.241Z,5.70
2017-11-30T19:00:43.834Z,5.70
2017-11-30T19:03:11.453Z,5.70
2017-11-30T19:05:39.085Z,5.70
2017-11-30T19:08:06.695Z,5.70
2017-11-30T19:10:34.280Z,5.70
2017-11-30T19:13:01.969Z,5.70
2017-11-30T19:15:29.619Z,5.70
2017-11-30T19:17:57.292Z,5.60
2017-11-30T19:20:24.947Z,5.60
2017-11-30T19:22:52.565Z,5.60
2017-11-30T19:25:20.238Z,5.70
2017-11-30T19:27:47.820Z,5.70
2017-11-30T19:30:15.436Z,5.70
2017-11-30T19:32:43.029Z,5.70
2017-11-30T19:35:10.720Z,5.70
2017-11-30T19:37:38.378Z,5.70
2017-11-30T19:40:05.997Z,5.80
2017-11-30T19:42:33.589Z,5.80
2017-11-30T19:45:01.209Z,5.80
2017-11-30T19:47:28.831Z,5.80
2017-11-30T19:49:56.445Z,5.80
2017-11-30T19:52:24.055Z,5.80
2017-11-30T19:54:51.721Z,5.80
2017-11-30T19:57:19.311Z,5.80
2017-11-30T19:59:46.948Z,5.80
2017-11-30T20:02:15.316Z,5.80
2017-11-30T20:04:42.909Z,5.80
2017-11-30T20:07:11.292Z,5.80
2017-11-30T20:09:38.888Z,5.80
2017-11-30T20:12:06.495Z,5.80
2017-11-30T20:14:34.852Z,5.80
2017-11-30T20:17:02.472Z,5.80
2017-11-30T20:19:30.068Z,5.80
2017-11-30T20:21:58.572Z,5.80
2017-11-30T20:24:26.159Z,5.80
2017-11-30T20:26:53.778Z,5.80
2017-11-30T20:29:21.363Z,5.80
2017-11-30T20:31:49.735Z,5.80
2017-11-30T20:34:17.353Z,5.80
2017-11-30T20:36:45.056Z,5.80
2017-11-30T20:39:12.639Z,5.80
2017-11-30T20:41:41.096Z,5.80
2017-11-30T20:44:08.759Z,5.80
2017-11-30T20:46:36.352Z,5.80
2017-11-30T20:49:04.741Z,5.80
2017-11-30T20:51:32.329Z,5.80
2017-11-30T20:53:59.953Z,5.90
2017-11-30T20:56:28.407Z,5.90
2017-11-30T20:58:56.068Z,5.90
2017-11-30T21:01:23.677Z,5.90
2017-11-30T21:03:51.286Z,5.80
2017-11-30T21:06:18.884Z,5.80
2017-11-30T21:08:46.515Z,5.80
2017-11-30T21:11:14.113Z,5.80
2017-11-30T21:13:41.744Z,5.70
2017-11-30T21:16:09.336Z,5.70
2017-11-30T21:18:36.976Z,5.70
2017-11-30T21:21:05.449Z,5.70
2017-11-30T21:23:33.104Z,5.70
2017-11-30T21:26:00.725Z,5.70
2017-11-30T21:28:28.327Z,5.80
2017-11-30T21:30:57.528Z,5.80
2017-11-30T21:33:25.196Z,5.80
2017-11-30T21:35:52.803Z,5.80
2017-11-30T21:38:20.412Z,5.80
2017-11-30T21:40:48.086Z,5.80
2017-11-30T21:43:15.674Z,5.80
2017-11-30T21:45:43.289Z,5.90
2017-11-30T21:48:10.883Z,5.90
2017-11-30T21:50:39.271Z,5.90
2017-11-30T21:53:07.719Z,5.90
2017-11-30T21:55:35.356Z,5.90
2017-11-30T21:58:02.949Z,5.90
2017-11-30T22:00:30.608Z,5.90
2017-11-30T22:02:58.226Z,5.90
2017-11-30T22:05:25.841Z,5.90
2017-11-30T22:07:53.443Z,5.80
2017-11-30T22:10:21.036Z,5.80
2017-11-30T22:12:48.652Z,5.80
2017-11-30T22:15:16.327Z,5.80
2017-11-30T22:17:44.765Z,5.70
2017-11-30T22:20:12.419Z,5.70
2017-11-30T22:22:40.092Z,5.80
2017-11-30T22:25:07.747Z,5.80
2017-11-30T22:27:35.421Z,5.80
2017-11-30T22:30:03.776Z,5.80
2017-11-30T22:32:31.379Z,5.80
2017-11-30T22:34:59.728Z,5.80
2017-11-30T22:37:27.394Z,5.80
2017-11-30T22:39:55.060Z,5.80
2017-11-30T22:42:22.716Z,5.80
2017-11-30T22:44:50.322Z,5.80
2017-11-30T22:47:17.904Z,5.80
2017-11-30T22:49:45.609Z,5.80
2017-11-30T22:52:13.274Z,5.80
2017-11-30T22:54:40.928Z,5.80
2017-11-30T22:57:08.521Z,5.80
2017-11-30T22:59:36.135Z,5.80
2017-11-30T23:02:03.812Z,5.80
2017-11-30T23:04:31.475Z,5.80
2017-11-30T23:06:59.060Z,5.70
2017-11-30T23:09:27.441Z,5.60
2017-11-30T23:11:55.799Z,5.50
2017-11-30T23:14:23.460Z,5.50
2017-11-30T23:16:51.048Z,5.50
2017-11-30T23:19:19.431Z,5.50
2017-11-30T23:21:47.874Z,5.50
2017-11-30T23:24:15.483Z,5.40
2017-11-30T23:26:43.102Z,5.50
2017-11-30T23:29:10.763Z,5.50
2017-11-30T23:31:39.256Z,5.50
2017-11-30T23:34:06.912Z,5.50
2017-11-30T23:36:34.528Z,5.50
2017-11-30T23:39:02.126Z,5.50
2017-11-30T23:41:29.741Z,5.50
2017-11-30T23:43:57.355Z,5.50
2017-11-30T23:46:24.974Z,5.50
2017-11-30T23:48:52.589Z,5.40
2017-11-30T23:51:20.213Z,5.40
2017-11-30T23:53:47.801Z,5.50
2017-11-30T23:56:15.408Z,5.40
2017-11-30T23:58:43.036Z,5.50
